sensor_id;sensor_type;location;lat;lon;timestamp;P1;durP1;ratioP1;P2;durP2;ratioP2
75655;SDS011;64252;51.094;13.714;2023-06-19T00:02:05;10.70;;;7.95;;
75655;SDS011;64252;51.094;13.714;2023-06-19T00:04:31;11.50;;;8.27;;
75655;SDS011;64252;51.094;13.714;2023-06-19T00:06:59;12.25;;;9.40;;
75655;SDS011;64252;51.094;13.714;2023-06-19T00:09:26;11.43;;;9.45;;
75655;SDS011;64252;51.094;13.714;2023-06-19T00:11:51;9.90;;;8.73;;
75655;SDS011;64252;51.094;13.714;2023-06-19T00:14:17;14.40;;;8.93;;
75655;SDS011;64252;51.094;13.714;2023-06-19T00:16:43;11.43;;;8.98;;
75655;SDS011;64252;51.094;13.714;2023-06-19T00:19:09;11.02;;;8.95;;
75655;SDS011;64252;51.094;13.714;2023-06-19T00:21:35;11.50;;;8.63;;
75655;SDS011;64252;51.094;13.714;2023-06-19T00:24:02;9.30;;;8.30;;
75655;SDS011;64252;51.094;13.714;2023-06-19T00:26:28;11.07;;;9.10;;
75655;SDS011;64252;51.094;13.714;2023-06-19T00:28:54;10.85;;;7.90;;
75655;SDS011;64252;51.094;13.714;2023-06-19T00:31:21;12.15;;;8.32;;
75655;SDS011;64252;51.094;13.714;2023-06-19T00:33:48;9.35;;;8.18;;
75655;SDS011;64252;51.094;13.714;2023-06-19T00:36:14;10.77;;;9.20;;
75655;SDS011;64252;51.094;13.714;2023-06-19T00:38:42;11.27;;;8.48;;
75655;SDS011;64252;51.094;13.714;2023-06-19T00:41:08;11.20;;;9.25;;
75655;SDS011;64252;51.094;13.714;2023-06-19T00:43:34;10.70;;;9.32;;
75655;SDS011;64252;51.094;13.714;2023-06-19T00:46:03;15.20;;;9.95;;
75655;SDS011;64252;51.094;13.714;2023-06-19T00:48:31;10.07;;;8.70;;
75655;SDS011;64252;51.094;13.714;2023-06-19T00:50:59;13.68;;;9.50;;
75655;SDS011;64252;51.094;13.714;2023-06-19T00:53:25;10.43;;;8.68;;
75655;SDS011;64252;51.094;13.714;2023-06-19T00:55:51;10.57;;;9.00;;
75655;SDS011;64252;51.094;13.714;2023-06-19T00:58:19;11.23;;;8.98;;
75655;SDS011;64252;51.094;13.714;2023-06-19T01:00:45;11.50;;;9.10;;
75655;SDS011;64252;51.094;13.714;2023-06-19T01:03:12;10.00;;;7.95;;
75655;SDS011;64252;51.094;13.714;2023-06-19T01:05:37;13.13;;;9.07;;
75655;SDS011;64252;51.094;13.714;2023-06-19T01:10:36;13.90;;;9.00;;
75655;SDS011;64252;51.094;13.714;2023-06-19T01:13:08;13.57;;;9.43;;
75655;SDS011;64252;51.094;13.714;2023-06-19T01:15:38;11.38;;;9.60;;
75655;SDS011;64252;51.094;13.714;2023-06-19T01:18:07;11.68;;;9.52;;
75655;SDS011;64252;51.094;13.714;2023-06-19T01:20:37;10.38;;;8.63;;
75655;SDS011;64252;51.094;13.714;2023-06-19T01:23:11;12.38;;;8.73;;
75655;SDS011;64252;51.094;13.714;2023-06-19T01:28:05;13.32;;;8.52;;
75655;SDS011;64252;51.094;13.714;2023-06-19T01:30:34;13.88;;;9.20;;
75655;SDS011;64252;51.094;13.714;2023-06-19T01:35:31;13.32;;;9.45;;
75655;SDS011;64252;51.094;13.714;2023-06-19T01:38:00;13.15;;;9.43;;
75655;SDS011;64252;51.094;13.714;2023-06-19T01:40:26;11.73;;;9.57;;
75655;SDS011;64252;51.094;13.714;2023-06-19T01:42:57;12.43;;;9.43;;
75655;SDS011;64252;51.094;13.714;2023-06-19T01:45:27;10.88;;;9.05;;
75655;SDS011;64252;51.094;13.714;2023-06-19T01:47:54;12.07;;;8.32;;
75655;SDS011;64252;51.094;13.714;2023-06-19T01:50:21;10.75;;;8.35;;
75655;SDS011;64252;51.094;13.714;2023-06-19T01:52:47;11.23;;;9.32;;
75655;SDS011;64252;51.094;13.714;2023-06-19T01:55:13;10.30;;;8.50;;
75655;SDS011;64252;51.094;13.714;2023-06-19T01:57:39;13.75;;;8.85;;
75655;SDS011;64252;51.094;13.714;2023-06-19T02:00:05;12.27;;;10.20;;
75655;SDS011;64252;51.094;13.714;2023-06-19T02:02:39;12.70;;;9.45;;
75655;SDS011;64252;51.094;13.714;2023-06-19T02:05:05;12.15;;;9.27;;
75655;SDS011;64252;51.094;13.714;2023-06-19T02:07:31;10.63;;;9.10;;
75655;SDS011;64252;51.094;13.714;2023-06-19T02:09:56;12.75;;;9.88;;
75655;SDS011;64252;51.094;13.714;2023-06-19T02:12:22;11.63;;;9.82;;
75655;SDS011;64252;51.094;13.714;2023-06-19T02:14:48;14.57;;;10.50;;
75655;SDS011;64252;51.094;13.714;2023-06-19T02:17:14;12.63;;;9.35;;
75655;SDS011;64252;51.094;13.714;2023-06-19T02:19:40;13.30;;;9.68;;
75655;SDS011;64252;51.094;13.714;2023-06-19T02:22:06;11.30;;;9.50;;
75655;SDS011;64252;51.094;13.714;2023-06-19T02:24:32;13.52;;;10.35;;
75655;SDS011;64252;51.094;13.714;2023-06-19T02:26:58;11.45;;;9.50;;
75655;SDS011;64252;51.094;13.714;2023-06-19T02:29:24;12.15;;;9.52;;
75655;SDS011;64252;51.094;13.714;2023-06-19T02:31:50;11.40;;;9.35;;
75655;SDS011;64252;51.094;13.714;2023-06-19T02:34:16;12.05;;;10.10;;
75655;SDS011;64252;51.094;13.714;2023-06-19T02:36:41;10.88;;;8.88;;
75655;SDS011;64252;51.094;13.714;2023-06-19T02:39:08;12.80;;;10.13;;
75655;SDS011;64252;51.094;13.714;2023-06-19T02:41:34;12.50;;;9.70;;
75655;SDS011;64252;51.094;13.714;2023-06-19T02:44:02;11.68;;;10.07;;
75655;SDS011;64252;51.094;13.714;2023-06-19T02:46:28;12.05;;;9.93;;
75655;SDS011;64252;51.094;13.714;2023-06-19T02:48:53;14.57;;;9.60;;
75655;SDS011;64252;51.094;13.714;2023-06-19T02:51:21;12.73;;;9.80;;
75655;SDS011;64252;51.094;13.714;2023-06-19T02:53:46;13.00;;;10.50;;
75655;SDS011;64252;51.094;13.714;2023-06-19T02:56:12;12.50;;;10.30;;
75655;SDS011;64252;51.094;13.714;2023-06-19T02:58:38;12.63;;;9.85;;
75655;SDS011;64252;51.094;13.714;2023-06-19T03:01:04;13.80;;;10.43;;
75655;SDS011;64252;51.094;13.714;2023-06-19T03:03:32;11.32;;;9.40;;
75655;SDS011;64252;51.094;13.714;2023-06-19T03:06:04;12.20;;;10.13;;
75655;SDS011;64252;51.094;13.714;2023-06-19T03:08:31;11.00;;;8.90;;
75655;SDS011;64252;51.094;13.714;2023-06-19T03:10:58;11.63;;;8.52;;
75655;SDS011;64252;51.094;13.714;2023-06-19T03:13:24;12.32;;;9.68;;
75655;SDS011;64252;51.094;13.714;2023-06-19T03:15:49;11.40;;;9.30;;
75655;SDS011;64252;51.094;13.714;2023-06-19T03:18:15;13.77;;;9.75;;
75655;SDS011;64252;51.094;13.714;2023-06-19T03:20:40;10.88;;;7.57;;
75655;SDS011;64252;51.094;13.714;2023-06-19T03:23:06;12.50;;;9.35;;
75655;SDS011;64252;51.094;13.714;2023-06-19T03:25:32;11.27;;;9.20;;
75655;SDS011;64252;51.094;13.714;2023-06-19T03:28:01;9.98;;;8.52;;
75655;SDS011;64252;51.094;13.714;2023-06-19T03:30:30;10.60;;;8.15;;
75655;SDS011;64252;51.094;13.714;2023-06-19T03:32:56;12.30;;;9.38;;
75655;SDS011;64252;51.094;13.714;2023-06-19T03:35:35;10.13;;;8.68;;
75655;SDS011;64252;51.094;13.714;2023-06-19T03:38:02;10.63;;;9.00;;
75655;SDS011;64252;51.094;13.714;2023-06-19T03:40:29;11.68;;;8.85;;
75655;SDS011;64252;51.094;13.714;2023-06-19T03:42:54;11.90;;;8.90;;
75655;SDS011;64252;51.094;13.714;2023-06-19T03:45:22;11.23;;;9.25;;
75655;SDS011;64252;51.094;13.714;2023-06-19T03:47:47;11.32;;;8.88;;
75655;SDS011;64252;51.094;13.714;2023-06-19T03:50:13;10.60;;;8.32;;
75655;SDS011;64252;51.094;13.714;2023-06-19T03:52:38;10.70;;;8.50;;
75655;SDS011;64252;51.094;13.714;2023-06-19T03:55:06;12.93;;;9.85;;
75655;SDS011;64252;51.094;13.714;2023-06-19T03:57:32;15.35;;;9.55;;
75655;SDS011;64252;51.094;13.714;2023-06-19T03:59:58;10.55;;;8.43;;
75655;SDS011;64252;51.094;13.714;2023-06-19T04:02:24;12.02;;;9.10;;
75655;SDS011;64252;51.094;13.714;2023-06-19T04:04:51;12.50;;;8.98;;
75655;SDS011;64252;51.094;13.714;2023-06-19T04:07:16;10.95;;;9.25;;
75655;SDS011;64252;51.094;13.714;2023-06-19T04:09:42;10.43;;;8.40;;
75655;SDS011;64252;51.094;13.714;2023-06-19T04:12:08;13.60;;;9.27;;
75655;SDS011;64252;51.094;13.714;2023-06-19T04:14:34;14.68;;;9.18;;
75655;SDS011;64252;51.094;13.714;2023-06-19T04:16:59;11.32;;;9.60;;
75655;SDS011;64252;51.094;13.714;2023-06-19T04:19:26;10.90;;;8.60;;
75655;SDS011;64252;51.094;13.714;2023-06-19T04:21:52;12.30;;;9.45;;
75655;SDS011;64252;51.094;13.714;2023-06-19T04:24:19;10.88;;;8.73;;
75655;SDS011;64252;51.094;13.714;2023-06-19T04:26:45;9.88;;;8.43;;
75655;SDS011;64252;51.094;13.714;2023-06-19T04:29:11;9.63;;;8.18;;
75655;SDS011;64252;51.094;13.714;2023-06-19T04:31:44;11.02;;;9.10;;
75655;SDS011;64252;51.094;13.714;2023-06-19T04:34:15;10.27;;;8.13;;
75655;SDS011;64252;51.094;13.714;2023-06-19T04:36:42;10.52;;;7.68;;
75655;SDS011;64252;51.094;13.714;2023-06-19T04:39:08;10.23;;;7.95;;
75655;SDS011;64252;51.094;13.714;2023-06-19T04:41:34;11.18;;;7.82;;
75655;SDS011;64252;51.094;13.714;2023-06-19T04:44:06;10.20;;;7.82;;
75655;SDS011;64252;51.094;13.714;2023-06-19T04:46:32;10.48;;;8.35;;
75655;SDS011;64252;51.094;13.714;2023-06-19T04:48:58;9.88;;;8.63;;
75655;SDS011;64252;51.094;13.714;2023-06-19T04:51:24;11.80;;;8.82;;
75655;SDS011;64252;51.094;13.714;2023-06-19T04:53:52;11.82;;;9.18;;
75655;SDS011;64252;51.094;13.714;2023-06-19T04:56:19;16.45;;;9.13;;
75655;SDS011;64252;51.094;13.714;2023-06-19T04:58:44;11.45;;;8.95;;
75655;SDS011;64252;51.094;13.714;2023-06-19T05:01:14;15.27;;;9.10;;
75655;SDS011;64252;51.094;13.714;2023-06-19T05:03:40;10.88;;;8.13;;
75655;SDS011;64252;51.094;13.714;2023-06-19T05:06:08;12.55;;;8.82;;
75655;SDS011;64252;51.094;13.714;2023-06-19T05:08:34;11.10;;;8.43;;
75655;SDS011;64252;51.094;13.714;2023-06-19T05:11:00;10.20;;;7.97;;
75655;SDS011;64252;51.094;13.714;2023-06-19T05:13:26;10.77;;;8.05;;
75655;SDS011;64252;51.094;13.714;2023-06-19T05:15:52;10.63;;;8.35;;
75655;SDS011;64252;51.094;13.714;2023-06-19T05:18:17;10.30;;;8.45;;
75655;SDS011;64252;51.094;13.714;2023-06-19T05:20:43;10.13;;;8.18;;
75655;SDS011;64252;51.094;13.714;2023-06-19T05:23:10;12.98;;;8.60;;
75655;SDS011;64252;51.094;13.714;2023-06-19T05:25:35;10.90;;;8.68;;
75655;SDS011;64252;51.094;13.714;2023-06-19T05:28:01;12.55;;;8.20;;
75655;SDS011;64252;51.094;13.714;2023-06-19T05:30:27;9.68;;;7.55;;
75655;SDS011;64252;51.094;13.714;2023-06-19T05:32:52;11.82;;;9.15;;
75655;SDS011;64252;51.094;13.714;2023-06-19T05:35:18;10.85;;;7.93;;
75655;SDS011;64252;51.094;13.714;2023-06-19T05:37:44;12.32;;;9.15;;
75655;SDS011;64252;51.094;13.714;2023-06-19T05:40:11;9.63;;;7.22;;
75655;SDS011;64252;51.094;13.714;2023-06-19T05:42:37;10.27;;;8.07;;
75655;SDS011;64252;51.094;13.714;2023-06-19T05:45:03;12.27;;;8.15;;
75655;SDS011;64252;51.094;13.714;2023-06-19T05:47:29;10.63;;;7.95;;
75655;SDS011;64252;51.094;13.714;2023-06-19T05:49:58;12.15;;;8.48;;
75655;SDS011;64252;51.094;13.714;2023-06-19T05:52:24;12.27;;;9.25;;
75655;SDS011;64252;51.094;13.714;2023-06-19T05:54:50;12.13;;;8.70;;
75655;SDS011;64252;51.094;13.714;2023-06-19T05:57:16;10.23;;;7.50;;
75655;SDS011;64252;51.094;13.714;2023-06-19T05:59:46;12.77;;;8.02;;
75655;SDS011;64252;51.094;13.714;2023-06-19T06:04:40;10.73;;;7.57;;
75655;SDS011;64252;51.094;13.714;2023-06-19T06:07:06;8.70;;;6.70;;
75655;SDS011;64252;51.094;13.714;2023-06-19T06:09:33;13.27;;;7.93;;
75655;SDS011;64252;51.094;13.714;2023-06-19T06:11:59;10.40;;;7.80;;
75655;SDS011;64252;51.094;13.714;2023-06-19T06:14:25;10.85;;;8.38;;
75655;SDS011;64252;51.094;13.714;2023-06-19T06:16:51;9.57;;;7.18;;
75655;SDS011;64252;51.094;13.714;2023-06-19T06:19:17;9.20;;;7.35;;
75655;SDS011;64252;51.094;13.714;2023-06-19T06:21:42;11.20;;;7.72;;
75655;SDS011;64252;51.094;13.714;2023-06-19T06:24:08;8.75;;;6.60;;
75655;SDS011;64252;51.094;13.714;2023-06-19T06:26:33;10.95;;;8.88;;
75655;SDS011;64252;51.094;13.714;2023-06-19T06:29:00;10.00;;;7.75;;
75655;SDS011;64252;51.094;13.714;2023-06-19T06:31:26;10.90;;;8.05;;
75655;SDS011;64252;51.094;13.714;2023-06-19T06:33:53;12.80;;;8.27;;
75655;SDS011;64252;51.094;13.714;2023-06-19T06:36:19;10.88;;;7.07;;
75655;SDS011;64252;51.094;13.714;2023-06-19T06:38:45;9.93;;;8.10;;
75655;SDS011;64252;51.094;13.714;2023-06-19T06:41:11;10.95;;;7.43;;
75655;SDS011;64252;51.094;13.714;2023-06-19T06:43:36;9.02;;;7.10;;
75655;SDS011;64252;51.094;13.714;2023-06-19T06:46:03;10.13;;;7.50;;
75655;SDS011;64252;51.094;13.714;2023-06-19T06:48:29;9.75;;;7.38;;
75655;SDS011;64252;51.094;13.714;2023-06-19T06:50:55;11.43;;;8.40;;
75655;SDS011;64252;51.094;13.714;2023-06-19T06:53:26;10.07;;;7.22;;
75655;SDS011;64252;51.094;13.714;2023-06-19T06:55:53;12.93;;;7.60;;
75655;SDS011;64252;51.094;13.714;2023-06-19T06:58:19;10.98;;;7.80;;
75655;SDS011;64252;51.094;13.714;2023-06-19T07:00:45;9.50;;;7.43;;
75655;SDS011;64252;51.094;13.714;2023-06-19T07:03:11;10.18;;;7.38;;
75655;SDS011;64252;51.094;13.714;2023-06-19T07:05:36;9.93;;;7.38;;
75655;SDS011;64252;51.094;13.714;2023-06-19T07:08:02;11.85;;;6.82;;
75655;SDS011;64252;51.094;13.714;2023-06-19T07:10:29;8.90;;;6.97;;
75655;SDS011;64252;51.094;13.714;2023-06-19T07:12:55;11.07;;;8.05;;
75655;SDS011;64252;51.094;13.714;2023-06-19T07:15:21;11.43;;;8.00;;
75655;SDS011;64252;51.094;13.714;2023-06-19T07:17:47;9.23;;;7.18;;
75655;SDS011;64252;51.094;13.714;2023-06-19T07:20:13;9.43;;;7.35;;
75655;SDS011;64252;51.094;13.714;2023-06-19T07:22:39;9.43;;;7.07;;
75655;SDS011;64252;51.094;13.714;2023-06-19T07:25:05;16.27;;;7.65;;
75655;SDS011;64252;51.094;13.714;2023-06-19T07:27:31;8.25;;;6.63;;
75655;SDS011;64252;51.094;13.714;2023-06-19T07:29:57;10.50;;;6.85;;
75655;SDS011;64252;51.094;13.714;2023-06-19T07:32:22;9.77;;;7.68;;
75655;SDS011;64252;51.094;13.714;2023-06-19T07:34:48;10.48;;;7.72;;
75655;SDS011;64252;51.094;13.714;2023-06-19T07:37:13;9.13;;;7.28;;
75655;SDS011;64252;51.094;13.714;2023-06-19T07:39:44;9.40;;;6.75;;
75655;SDS011;64252;51.094;13.714;2023-06-19T07:42:10;10.13;;;6.47;;
75655;SDS011;64252;51.094;13.714;2023-06-19T07:44:36;9.02;;;6.97;;
75655;SDS011;64252;51.094;13.714;2023-06-19T07:47:01;10.80;;;6.72;;
75655;SDS011;64252;51.094;13.714;2023-06-19T07:49:27;8.52;;;6.50;;
75655;SDS011;64252;51.094;13.714;2023-06-19T07:51:53;9.20;;;5.95;;
75655;SDS011;64252;51.094;13.714;2023-06-19T07:54:18;7.63;;;6.15;;
75655;SDS011;64252;51.094;13.714;2023-06-19T07:56:44;11.10;;;5.95;;
75655;SDS011;64252;51.094;13.714;2023-06-19T07:59:09;8.75;;;6.30;;
75655;SDS011;64252;51.094;13.714;2023-06-19T08:01:35;9.57;;;6.00;;
75655;SDS011;64252;51.094;13.714;2023-06-19T08:04:00;8.98;;;6.07;;
75655;SDS011;64252;51.094;13.714;2023-06-19T08:06:26;9.00;;;5.10;;
75655;SDS011;64252;51.094;13.714;2023-06-19T08:08:52;7.03;;;5.07;;
75655;SDS011;64252;51.094;13.714;2023-06-19T08:11:17;7.45;;;5.43;;
75655;SDS011;64252;51.094;13.714;2023-06-19T08:13:43;7.25;;;5.70;;
75655;SDS011;64252;51.094;13.714;2023-06-19T08:16:08;7.57;;;5.40;;
75655;SDS011;64252;51.094;13.714;2023-06-19T08:18:35;14.60;;;6.22;;
75655;SDS011;64252;51.094;13.714;2023-06-19T08:21:02;7.47;;;5.30;;
75655;SDS011;64252;51.094;13.714;2023-06-19T08:23:28;7.40;;;5.60;;
75655;SDS011;64252;51.094;13.714;2023-06-19T08:25:53;7.57;;;5.18;;
75655;SDS011;64252;51.094;13.714;2023-06-19T08:28:19;10.15;;;5.38;;
75655;SDS011;64252;51.094;13.714;2023-06-19T08:30:45;8.50;;;5.70;;
75655;SDS011;64252;51.094;13.714;2023-06-19T08:33:11;8.88;;;6.25;;
75655;SDS011;64252;51.094;13.714;2023-06-19T08:35:38;7.20;;;5.47;;
75655;SDS011;64252;51.094;13.714;2023-06-19T08:38:04;8.70;;;5.45;;
75655;SDS011;64252;51.094;13.714;2023-06-19T08:40:30;7.40;;;5.60;;
75655;SDS011;64252;51.094;13.714;2023-06-19T08:42:56;8.05;;;5.13;;
75655;SDS011;64252;51.094;13.714;2023-06-19T08:45:21;6.68;;;5.25;;
75655;SDS011;64252;51.094;13.714;2023-06-19T08:47:47;10.95;;;5.82;;
75655;SDS011;64252;51.094;13.714;2023-06-19T08:50:14;9.63;;;5.80;;
75655;SDS011;64252;51.094;13.714;2023-06-19T08:52:40;6.90;;;4.93;;
75655;SDS011;64252;51.094;13.714;2023-06-19T08:55:07;10.43;;;6.00;;
75655;SDS011;64252;51.094;13.714;2023-06-19T08:57:39;8.43;;;6.18;;
75655;SDS011;64252;51.094;13.714;2023-06-19T09:00:05;8.45;;;5.80;;
75655;SDS011;64252;51.094;13.714;2023-06-19T09:02:43;7.22;;;5.53;;
75655;SDS011;64252;51.094;13.714;2023-06-19T09:05:16;7.68;;;5.28;;
75655;SDS011;64252;51.094;13.714;2023-06-19T09:07:43;8.38;;;6.00;;
75655;SDS011;64252;51.094;13.714;2023-06-19T09:10:13;8.85;;;6.30;;
75655;SDS011;64252;51.094;13.714;2023-06-19T09:12:55;6.97;;;5.90;;
75655;SDS011;64252;51.094;13.714;2023-06-19T09:15:29;9.07;;;5.85;;
75655;SDS011;64252;51.094;13.714;2023-06-19T09:18:01;6.50;;;5.40;;
75655;SDS011;64252;51.094;13.714;2023-06-19T09:20:28;11.65;;;6.43;;
75655;SDS011;64252;51.094;13.714;2023-06-19T09:22:57;7.72;;;6.13;;
75655;SDS011;64252;51.094;13.714;2023-06-19T09:25:24;9.32;;;5.90;;
75655;SDS011;64252;51.094;13.714;2023-06-19T09:27:52;8.60;;;6.38;;
75655;SDS011;64252;51.094;13.714;2023-06-19T09:30:19;9.05;;;5.93;;
75655;SDS011;64252;51.094;13.714;2023-06-19T09:32:46;8.25;;;6.28;;
75655;SDS011;64252;51.094;13.714;2023-06-19T09:35:12;7.47;;;5.70;;
75655;SDS011;64252;51.094;13.714;2023-06-19T09:37:38;8.02;;;5.50;;
75655;SDS011;64252;51.094;13.714;2023-06-19T09:40:08;9.45;;;5.90;;
75655;SDS011;64252;51.094;13.714;2023-06-19T09:42:37;10.18;;;5.97;;
75655;SDS011;64252;51.094;13.714;2023-06-19T09:45:07;7.30;;;6.00;;
75655;SDS011;64252;51.094;13.714;2023-06-19T09:50:14;7.07;;;5.85;;
75655;SDS011;64252;51.094;13.714;2023-06-19T09:52:45;10.10;;;6.10;;
75655;SDS011;64252;51.094;13.714;2023-06-19T09:55:11;8.38;;;6.00;;
75655;SDS011;64252;51.094;13.714;2023-06-19T09:57:38;9.63;;;6.10;;
75655;SDS011;64252;51.094;13.714;2023-06-19T10:00:05;8.50;;;6.40;;
75655;SDS011;64252;51.094;13.714;2023-06-19T10:02:41;8.40;;;6.78;;
75655;SDS011;64252;51.094;13.714;2023-06-19T10:05:08;7.28;;;5.88;;
75655;SDS011;64252;51.094;13.714;2023-06-19T10:07:37;11.68;;;6.88;;
75655;SDS011;64252;51.094;13.714;2023-06-19T10:10:06;7.50;;;6.50;;
75655;SDS011;64252;51.094;13.714;2023-06-19T10:12:38;9.20;;;6.38;;
75655;SDS011;64252;51.094;13.714;2023-06-19T10:15:18;11.40;;;6.07;;
75655;SDS011;64252;51.094;13.714;2023-06-19T10:17:46;12.35;;;6.70;;
75655;SDS011;64252;51.094;13.714;2023-06-19T10:22:56;10.55;;;6.30;;
75655;SDS011;64252;51.094;13.714;2023-06-19T10:25:22;12.20;;;6.80;;
75655;SDS011;64252;51.094;13.714;2023-06-19T10:27:49;8.02;;;6.10;;
75655;SDS011;64252;51.094;13.714;2023-06-19T10:30:17;8.63;;;6.78;;
75655;SDS011;64252;51.094;13.714;2023-06-19T10:32:47;12.30;;;6.82;;
75655;SDS011;64252;51.094;13.714;2023-06-19T10:35:13;8.15;;;6.45;;
75655;SDS011;64252;51.094;13.714;2023-06-19T10:37:40;7.82;;;6.50;;
75655;SDS011;64252;51.094;13.714;2023-06-19T10:40:07;9.18;;;7.03;;
75655;SDS011;64252;51.094;13.714;2023-06-19T10:42:37;9.18;;;6.70;;
75655;SDS011;64252;51.094;13.714;2023-06-19T10:45:04;10.80;;;6.75;;
75655;SDS011;64252;51.094;13.714;2023-06-19T10:47:34;8.50;;;5.68;;
75655;SDS011;64252;51.094;13.714;2023-06-19T10:50:00;10.75;;;6.50;;
75655;SDS011;64252;51.094;13.714;2023-06-19T10:52:30;8.30;;;6.68;;
75655;SDS011;64252;51.094;13.714;2023-06-19T10:54:56;11.13;;;6.53;;
75655;SDS011;64252;51.094;13.714;2023-06-19T10:57:31;10.52;;;6.97;;
75655;SDS011;64252;51.094;13.714;2023-06-19T10:59:57;8.77;;;6.88;;
75655;SDS011;64252;51.094;13.714;2023-06-19T11:02:24;6.93;;;6.18;;
75655;SDS011;64252;51.094;13.714;2023-06-19T11:04:56;8.68;;;6.53;;
75655;SDS011;64252;51.094;13.714;2023-06-19T11:07:22;9.50;;;5.95;;
75655;SDS011;64252;51.094;13.714;2023-06-19T11:09:50;7.88;;;6.55;;
75655;SDS011;64252;51.094;13.714;2023-06-19T11:12:22;8.65;;;6.20;;
75655;SDS011;64252;51.094;13.714;2023-06-19T11:14:48;8.48;;;6.20;;
75655;SDS011;64252;51.094;13.714;2023-06-19T11:17:14;9.02;;;5.70;;
75655;SDS011;64252;51.094;13.714;2023-06-19T11:19:40;10.25;;;6.53;;
75655;SDS011;64252;51.094;13.714;2023-06-19T11:22:08;7.63;;;6.00;;
75655;SDS011;64252;51.094;13.714;2023-06-19T11:24:34;8.57;;;6.32;;
75655;SDS011;64252;51.094;13.714;2023-06-19T11:27:00;10.63;;;6.20;;
75655;SDS011;64252;51.094;13.714;2023-06-19T11:29:26;7.78;;;6.15;;
75655;SDS011;64252;51.094;13.714;2023-06-19T11:32:05;6.93;;;6.22;;
75655;SDS011;64252;51.094;13.714;2023-06-19T11:34:38;7.07;;;5.45;;
75655;SDS011;64252;51.094;13.714;2023-06-19T11:37:13;8.68;;;6.10;;
75655;SDS011;64252;51.094;13.714;2023-06-19T11:39:40;12.75;;;6.10;;
75655;SDS011;64252;51.094;13.714;2023-06-19T11:42:10;11.70;;;6.50;;
75655;SDS011;64252;51.094;13.714;2023-06-19T11:44:51;7.07;;;5.93;;
75655;SDS011;64252;51.094;13.714;2023-06-19T11:47:32;8.95;;;6.50;;
75655;SDS011;64252;51.094;13.714;2023-06-19T11:49:58;7.53;;;6.38;;
75655;SDS011;64252;51.094;13.714;2023-06-19T11:52:25;9.30;;;6.20;;
75655;SDS011;64252;51.094;13.714;2023-06-19T11:54:51;9.80;;;6.68;;
75655;SDS011;64252;51.094;13.714;2023-06-19T11:57:16;7.82;;;6.38;;
75655;SDS011;64252;51.094;13.714;2023-06-19T11:59:42;8.95;;;6.20;;
75655;SDS011;64252;51.094;13.714;2023-06-19T12:02:08;8.18;;;5.65;;
75655;SDS011;64252;51.094;13.714;2023-06-19T12:04:34;6.68;;;5.90;;
75655;SDS011;64252;51.094;13.714;2023-06-19T12:07:00;7.70;;;5.70;;
75655;SDS011;64252;51.094;13.714;2023-06-19T12:09:27;7.65;;;6.00;;
75655;SDS011;64252;51.094;13.714;2023-06-19T12:11:55;8.63;;;5.68;;
75655;SDS011;64252;51.094;13.714;2023-06-19T12:14:21;7.72;;;6.30;;
75655;SDS011;64252;51.094;13.714;2023-06-19T12:16:46;8.18;;;6.28;;
75655;SDS011;64252;51.094;13.714;2023-06-19T12:19:12;7.32;;;6.03;;
75655;SDS011;64252;51.094;13.714;2023-06-19T12:21:38;24.17;;;6.93;;
75655;SDS011;64252;51.094;13.714;2023-06-19T12:24:04;8.65;;;5.38;;
75655;SDS011;64252;51.094;13.714;2023-06-19T12:26:30;9.38;;;6.00;;
75655;SDS011;64252;51.094;13.714;2023-06-19T12:29:04;7.45;;;5.65;;
75655;SDS011;64252;51.094;13.714;2023-06-19T12:31:32;10.93;;;5.53;;
75655;SDS011;64252;51.094;13.714;2023-06-19T12:33:59;7.57;;;5.65;;
75655;SDS011;64252;51.094;13.714;2023-06-19T12:36:26;6.97;;;5.22;;
75655;SDS011;64252;51.094;13.714;2023-06-19T12:38:53;6.57;;;5.00;;
75655;SDS011;64252;51.094;13.714;2023-06-19T12:41:22;7.18;;;5.10;;
75655;SDS011;64252;51.094;13.714;2023-06-19T12:43:48;6.60;;;5.20;;
75655;SDS011;64252;51.094;13.714;2023-06-19T12:46:14;6.78;;;5.28;;
75655;SDS011;64252;51.094;13.714;2023-06-19T12:48:40;6.50;;;5.00;;
75655;SDS011;64252;51.094;13.714;2023-06-19T12:51:07;9.23;;;5.93;;
75655;SDS011;64252;51.094;13.714;2023-06-19T12:53:32;9.90;;;5.18;;
75655;SDS011;64252;51.094;13.714;2023-06-19T12:55:58;8.52;;;5.47;;
75655;SDS011;64252;51.094;13.714;2023-06-19T12:58:25;7.82;;;5.65;;
75655;SDS011;64252;51.094;13.714;2023-06-19T13:00:51;6.30;;;5.10;;
75655;SDS011;64252;51.094;13.714;2023-06-19T13:03:18;6.32;;;5.38;;
75655;SDS011;64252;51.094;13.714;2023-06-19T13:05:44;8.30;;;5.45;;
75655;SDS011;64252;51.094;13.714;2023-06-19T13:08:10;8.15;;;5.32;;
75655;SDS011;64252;51.094;13.714;2023-06-19T13:10:36;6.72;;;4.80;;
75655;SDS011;64252;51.094;13.714;2023-06-19T13:13:02;6.60;;;5.10;;
75655;SDS011;64252;51.094;13.714;2023-06-19T13:15:27;7.18;;;5.45;;
75655;SDS011;64252;51.094;13.714;2023-06-19T13:17:53;8.48;;;5.75;;
75655;SDS011;64252;51.094;13.714;2023-06-19T13:20:19;7.60;;;5.32;;
75655;SDS011;64252;51.094;13.714;2023-06-19T13:22:45;6.25;;;4.82;;
75655;SDS011;64252;51.094;13.714;2023-06-19T13:25:11;6.20;;;4.75;;
75655;SDS011;64252;51.094;13.714;2023-06-19T13:27:36;6.35;;;4.65;;
75655;SDS011;64252;51.094;13.714;2023-06-19T13:30:02;7.53;;;5.00;;
75655;SDS011;64252;51.094;13.714;2023-06-19T13:32:28;7.43;;;5.78;;
75655;SDS011;64252;51.094;13.714;2023-06-19T13:34:53;7.45;;;5.78;;
75655;SDS011;64252;51.094;13.714;2023-06-19T13:37:19;8.18;;;5.90;;
75655;SDS011;64252;51.094;13.714;2023-06-19T13:39:46;8.30;;;5.75;;
75655;SDS011;64252;51.094;13.714;2023-06-19T13:42:11;7.35;;;5.75;;
75655;SDS011;64252;51.094;13.714;2023-06-19T13:44:37;7.30;;;6.00;;
75655;SDS011;64252;51.094;13.714;2023-06-19T13:47:04;11.23;;;5.93;;
75655;SDS011;64252;51.094;13.714;2023-06-19T13:49:30;8.52;;;6.07;;
75655;SDS011;64252;51.094;13.714;2023-06-19T13:51:55;8.10;;;6.35;;
75655;SDS011;64252;51.094;13.714;2023-06-19T13:54:21;7.53;;;6.22;;
75655;SDS011;64252;51.094;13.714;2023-06-19T13:56:47;8.95;;;6.30;;
75655;SDS011;64252;51.094;13.714;2023-06-19T13:59:13;8.02;;;6.75;;
75655;SDS011;64252;51.094;13.714;2023-06-19T14:01:42;8.70;;;5.95;;
75655;SDS011;64252;51.094;13.714;2023-06-19T14:04:07;6.95;;;5.93;;
75655;SDS011;64252;51.094;13.714;2023-06-19T14:06:36;9.30;;;6.25;;
75655;SDS011;64252;51.094;13.714;2023-06-19T14:09:03;9.60;;;6.80;;
75655;SDS011;64252;51.094;13.714;2023-06-19T14:11:29;9.30;;;6.55;;
75655;SDS011;64252;51.094;13.714;2023-06-19T14:13:55;9.23;;;7.28;;
75655;SDS011;64252;51.094;13.714;2023-06-19T14:16:21;9.00;;;6.38;;
75655;SDS011;64252;51.094;13.714;2023-06-19T14:18:47;10.32;;;7.18;;
75655;SDS011;64252;51.094;13.714;2023-06-19T14:21:12;10.88;;;6.80;;
75655;SDS011;64252;51.094;13.714;2023-06-19T14:23:38;9.23;;;6.97;;
75655;SDS011;64252;51.094;13.714;2023-06-19T14:26:09;7.40;;;6.60;;
75655;SDS011;64252;51.094;13.714;2023-06-19T14:28:37;10.10;;;7.20;;
75655;SDS011;64252;51.094;13.714;2023-06-19T14:31:04;9.65;;;7.38;;
75655;SDS011;64252;51.094;13.714;2023-06-19T14:33:29;8.93;;;7.47;;
75655;SDS011;64252;51.094;13.714;2023-06-19T14:35:56;9.70;;;6.90;;
75655;SDS011;64252;51.094;13.714;2023-06-19T14:38:21;9.57;;;7.55;;
75655;SDS011;64252;51.094;13.714;2023-06-19T14:40:48;10.25;;;7.28;;